Time;durP1;ratioP1;P1;durP2;ratioP2;P2;SDS_P1;SDS_P2;PMS_P1;PMS_P2;Temp;Humidity;BMP_temperature;BMP_pressure;BME280_temperature;BME280_humidity;BME280_pressure;Samples;Min_cycle;Max_cycle;Signal;HPM_P1;HPM_P2
2023/12/29 00:02:30;;;;;;;16.40;10.55;;;;;;;;;;6249332;28;20049;-75
2023/12/29 00:05:33;;;;;;;18.17;10.93;;;;;;;;;;6283340;28;20114;-75
2023/12/29 00:08:35;;;;;;;15.70;9.77;;;;;;;;;;6251865;28;20045;-75
2023/12/29 00:11:37;;;;;;;19.45;11.13;;;;;;;;;;6250037;28;20109;-76
2023/12/29 00:14:39;;;;;;;19.17;11.70;;;;;;;;;;6254733;28;20064;-75
2023/12/29 00:17:41;;;;;;;17.83;10.57;;;;;;;;;;6254959;28;20401;-76
2023/12/29 00:20:45;;;;;;;17.25;10.38;;;;;;;;;;6254288;28;20061;-76
2023/12/29 00:23:47;;;;;;;16.05;10.15;;;;;;;;;;6250772;28;20057;-74
2023/12/29 00:26:48;;;;;;;15.52;9.90;;;;;;;;;;6252982;28;20054;-75
2023/12/29 00:29:50;;;;;;;15.38;9.57;;;;;;;;;;6253910;28;20057;-75
2023/12/29 00:32:52;;;;;;;15.95;10.18;;;;;;;;;;6251461;28;20060;-76
2023/12/29 00:35:55;;;;;;;17.67;10.27;;;;;;;;;;6284957;28;20064;-75
2023/12/29 00:38:57;;;;;;;17.98;10.32;;;;;;;;;;6254659;28;20113;-76
2023/12/29 00:41:59;;;;;;;15.68;9.95;;;;;;;;;;6271092;28;20064;-74
2023/12/29 00:45:02;;;;;;;20.20;10.48;;;;;;;;;;6254474;28;20057;-75
2023/12/29 00:48:04;;;;;;;16.02;10.13;;;;;;;;;;6236659;28;20053;-75
2023/12/29 00:51:08;;;;;;;17.05;10.70;;;;;;;;;;6252338;28;20103;-76
2023/12/29 00:54:10;;;;;;;17.17;10.45;;;;;;;;;;6285251;28;20058;-76
2023/12/29 00:57:11;;;;;;;17.20;10.88;;;;;;;;;;6251698;28;20057;-75
2023/12/29 01:00:14;;;;;;;16.52;10.27;;;;;;;;;;6254895;28;20053;-76
2023/12/29 01:03:16;;;;;;;16.52;10.63;;;;;;;;;;6253846;28;20064;-76
2023/12/29 01:06:19;;;;;;;19.55;11.60;;;;;;;;;;6255100;28;20057;-76
2023/12/29 01:09:21;;;;;;;16.97;11.43;;;;;;;;;;6252481;28;20087;-76
2023/12/29 01:12:23;;;;;;;18.67;10.73;;;;;;;;;;6251276;28;20563;-76
2023/12/29 01:15:25;;;;;;;17.50;9.85;;;;;;;;;;6253882;28;20330;-76
2023/12/29 01:18:27;;;;;;;15.63;10.98;;;;;;;;;;6252183;28;20061;-76
2023/12/29 01:21:33;;;;;;;20.85;11.35;;;;;;;;;;6252889;28;20052;-77
2023/12/29 01:24:35;;;;;;;21.38;12.75;;;;;;;;;;6253441;28;20060;-78
2023/12/29 01:27:37;;;;;;;19.13;13.18;;;;;;;;;;6251779;28;20060;-76
2023/12/29 01:30:39;;;;;;;19.35;13.15;;;;;;;;;;6253388;28;20351;-76
2023/12/29 01:33:41;;;;;;;18.73;12.80;;;;;;;;;;6285995;28;20072;-76
2023/12/29 01:36:46;;;;;;;22.13;13.20;;;;;;;;;;6251836;28;20053;-76
2023/12/29 01:39:49;;;;;;;24.25;14.00;;;;;;;;;;6252458;28;20091;-75
2023/12/29 01:42:50;;;;;;;24.85;15.60;;;;;;;;;;6250319;28;20068;-76
2023/12/29 01:45:52;;;;;;;22.25;15.10;;;;;;;;;;6285396;28;20052;-76
2023/12/29 01:48:54;;;;;;;21.90;14.65;;;;;;;;;;6253651;28;20102;-76
2023/12/29 01:51:59;;;;;;;22.40;14.75;;;;;;;;;;6253362;28;20049;-76
2023/12/29 01:55:00;;;;;;;24.45;15.40;;;;;;;;;;6228918;28;20248;-76
2023/12/29 01:58:03;;;;;;;26.00;15.50;;;;;;;;;;6249801;28;20052;-76
2023/12/29 02:01:06;;;;;;;24.50;15.00;;;;;;;;;;6249714;28;20050;-76
2023/12/29 02:04:08;;;;;;;25.05;15.45;;;;;;;;;;6252373;28;20061;-75
2023/12/29 02:07:11;;;;;;;27.92;16.27;;;;;;;;;;6251866;28;20370;-75
2023/12/29 02:10:15;;;;;;;26.85;15.85;;;;;;;;;;6229551;28;20050;-75
2023/12/29 02:13:17;;;;;;;24.33;15.75;;;;;;;;;;6267459;28;20062;-76
2023/12/29 02:16:24;;;;;;;26.35;15.02;;;;;;;;;;6254014;28;20119;-76
2023/12/29 02:19:41;;;;;;;24.85;15.30;;;;;;;;;;6252155;28;20056;-76
2023/12/29 02:22:45;;;;;;;22.58;14.57;;;;;;;;;;6251252;28;20116;-76
2023/12/29 02:25:48;;;;;;;26.33;14.30;;;;;;;;;;6252877;28;20057;-76
2023/12/29 02:28:54;;;;;;;20.50;14.25;;;;;;;;;;6251708;28;20451;-75
2023/12/29 02:32:00;;;;;;;22.23;13.88;;;;;;;;;;6252215;28;20339;-75
2023/12/29 02:35:03;;;;;;;22.08;13.68;;;;;;;;;;6249139;28;20184;-74
2023/12/29 02:38:06;;;;;;;22.33;13.50;;;;;;;;;;6252817;28;20045;-75
2023/12/29 02:41:10;;;;;;;22.87;14.13;;;;;;;;;;6282977;28;20373;-74
2023/12/29 02:44:12;;;;;;;22.20;13.82;;;;;;;;;;6253453;28;20053;-75
2023/12/29 02:47:16;;;;;;;19.40;12.73;;;;;;;;;;6269338;28;20053;-73
2023/12/29 02:50:18;;;;;;;19.13;12.90;;;;;;;;;;6252060;28;20057;-74
2023/12/29 02:53:20;;;;;;;23.30;13.63;;;;;;;;;;6252588;28;20053;-74
2023/12/29 02:56:24;;;;;;;21.90;12.50;;;;;;;;;;6253731;28;20045;-77
2023/12/29 02:59:26;;;;;;;22.95;13.00;;;;;;;;;;6248741;28;20127;-76
2023/12/29 03:02:29;;;;;;;21.05;13.60;;;;;;;;;;6252552;28;20057;-74
2023/12/29 03:05:30;;;;;;;25.23;14.02;;;;;;;;;;6253933;28;20056;-75
2023/12/29 03:08:32;;;;;;;23.77;14.82;;;;;;;;;;6252311;28;20553;-76
2023/12/29 03:11:36;;;;;;;24.30;15.75;;;;;;;;;;6252141;28;20068;-76
2023/12/29 03:14:38;;;;;;;25.27;15.73;;;;;;;;;;6232365;28;20041;-75
2023/12/29 03:17:40;;;;;;;28.05;16.83;;;;;;;;;;6249095;28;20061;-77
2023/12/29 03:20:43;;;;;;;25.40;16.33;;;;;;;;;;6251412;28;20053;-76
2023/12/29 03:23:45;;;;;;;26.40;15.98;;;;;;;;;;6252550;28;20239;-76
2023/12/29 03:26:48;;;;;;;28.05;16.65;;;;;;;;;;6250183;28;20068;-76
2023/12/29 03:29:50;;;;;;;28.70;16.57;;;;;;;;;;6251958;28;20064;-74
2023/12/29 03:32:52;;;;;;;28.08;16.73;;;;;;;;;;6252322;28;20056;-76
2023/12/29 03:35:54;;;;;;;27.40;16.45;;;;;;;;;;6257405;28;20053;-76
2023/12/29 03:38:56;;;;;;;25.30;15.88;;;;;;;;;;6287573;28;20057;-75
2023/12/29 03:41:59;;;;;;;27.55;15.88;;;;;;;;;;6256422;28;20053;-76
2023/12/29 03:45:01;;;;;;;24.17;15.77;;;;;;;;;;6253846;28;20053;-74
2023/12/29 03:48:03;;;;;;;25.30;14.57;;;;;;;;;;6254783;28;20331;-74
2023/12/29 03:51:05;;;;;;;22.73;14.50;;;;;;;;;;6240316;28;20275;-74
2023/12/29 03:54:07;;;;;;;22.45;14.98;;;;;;;;;;6289869;28;20045;-74
2023/12/29 03:57:11;;;;;;;21.92;14.35;;;;;;;;;;6255634;28;20057;-75
2023/12/29 04:00:14;;;;;;;22.75;14.35;;;;;;;;;;6256201;28;20056;-73
2023/12/29 04:03:16;;;;;;;25.33;14.68;;;;;;;;;;6256052;28;20283;-75
2023/12/29 04:06:18;;;;;;;21.77;13.95;;;;;;;;;;6239743;28;20049;-75
2023/12/29 04:09:20;;;;;;;21.23;13.80;;;;;;;;;;6256772;28;20048;-74
2023/12/29 04:12:23;;;;;;;29.40;13.93;;;;;;;;;;6254227;28;20050;-75
2023/12/29 04:15:25;;;;;;;21.20;12.87;;;;;;;;;;6257382;28;20057;-74
2023/12/29 04:18:28;;;;;;;21.10;13.35;;;;;;;;;;6257305;28;20342;-74
2023/12/29 04:21:30;;;;;;;22.17;12.90;;;;;;;;;;6255689;28;20053;-76
2023/12/29 04:24:32;;;;;;;21.17;12.70;;;;;;;;;;6255790;28;20053;-75
2023/12/29 04:27:37;;;;;;;21.23;13.38;;;;;;;;;;6253325;28;20069;-74
2023/12/29 04:30:39;;;;;;;21.45;12.73;;;;;;;;;;6254601;28;20057;-75
2023/12/29 04:33:40;;;;;;;19.20;12.73;;;;;;;;;;6254755;28;20053;-81
2023/12/29 04:36:43;;;;;;;24.10;12.45;;;;;;;;;;6256231;28;20049;-81
2023/12/29 04:39:45;;;;;;;21.92;13.68;;;;;;;;;;6254959;28;20057;-79
2023/12/29 04:42:48;;;;;;;20.13;12.43;;;;;;;;;;6255897;28;20053;-81
2023/12/29 04:45:50;;;;;;;18.63;12.03;;;;;;;;;;6253426;28;20064;-81
2023/12/29 04:48:53;;;;;;;18.83;12.32;;;;;;;;;;6253031;28;20045;-80
2023/12/29 04:51:54;;;;;;;16.77;11.48;;;;;;;;;;6255810;28;20065;-81
2023/12/29 04:54:56;;;;;;;19.85;12.07;;;;;;;;;;6256277;28;20371;-80
2023/12/29 04:57:59;;;;;;;21.95;12.77;;;;;;;;;;6253901;28;20049;-80
2023/12/29 05:01:02;;;;;;;21.05;11.90;;;;;;;;;;6238258;28;20061;-80
2023/12/29 05:04:04;;;;;;;17.52;11.18;;;;;;;;;;6255444;28;20053;-80
2023/12/29 05:07:07;;;;;;;18.80;11.88;;;;;;;;;;6255685;28;20263;-81
2023/12/29 05:10:09;;;;;;;19.20;12.18;;;;;;;;;;6254768;28;20056;-81
2023/12/29 05:13:13;;;;;;;19.80;11.73;;;;;;;;;;6253097;28;20370;-80
2023/12/29 05:16:14;;;;;;;18.75;11.60;;;;;;;;;;6254494;28;20084;-81
2023/12/29 05:19:16;;;;;;;17.40;11.15;;;;;;;;;;6254571;28;20120;-80
2023/12/29 05:22:18;;;;;;;18.88;11.98;;;;;;;;;;6252480;28;20053;-82
2023/12/29 05:25:22;;;;;;;20.55;12.10;;;;;;;;;;6252990;28;20053;-81
2023/12/29 05:28:25;;;;;;;18.17;11.52;;;;;;;;;;6253293;28;20053;-82
2023/12/29 05:31:27;;;;;;;14.63;9.88;;;;;;;;;;6287270;28;20059;-81
2023/12/29 05:34:29;;;;;;;19.02;12.00;;;;;;;;;;6253722;28;20299;-80
2023/12/29 05:37:31;;;;;;;18.90;12.18;;;;;;;;;;6254791;28;20049;-82
2023/12/29 05:40:32;;;;;;;15.02;10.68;;;;;;;;;;6253777;28;20057;-80
2023/12/29 05:43:36;;;;;;;17.85;11.90;;;;;;;;;;6254143;28;20045;-75
2023/12/29 05:46:38;;;;;;;16.30;11.02;;;;;;;;;;6253463;28;20091;-75
2023/12/29 05:49:40;;;;;;;17.35;11.00;;;;;;;;;;6253159;28;20112;-76
2023/12/29 05:52:42;;;;;;;19.23;11.48;;;;;;;;;;6251647;28;20053;-76
2023/12/29 05:55:44;;;;;;;19.23;11.90;;;;;;;;;;6253178;28;20061;-75
2023/12/29 05:58:48;;;;;;;18.75;11.73;;;;;;;;;;6252849;28;20057;-76
2023/12/29 06:01:51;;;;;;;20.52;11.75;;;;;;;;;;6254218;28;20076;-76
2023/12/29 06:04:52;;;;;;;15.70;10.27;;;;;;;;;;6253668;28;20113;-76
2023/12/29 06:07:54;;;;;;;17.05;10.80;;;;;;;;;;6251650;28;20053;-76
2023/12/29 06:10:56;;;;;;;17.88;11.13;;;;;;;;;;6281405;28;20066;-76
2023/12/29 06:14:00;;;;;;;17.23;10.40;;;;;;;;;;6253142;28;20057;-76
2023/12/29 06:17:02;;;;;;;15.07;10.48;;;;;;;;;;6251527;28;20065;-75
2023/12/29 06:20:06;;;;;;;16.58;10.98;;;;;;;;;;6251165;28;20433;-74
2023/12/29 06:23:07;;;;;;;16.85;11.15;;;;;;;;;;6268162;28;20045;-75
2023/12/29 06:26:16;;;;;;;15.65;10.07;;;;;;;;;;6249259;28;20546;-74
2023/12/29 06:29:19;;;;;;;16.83;10.98;;;;;;;;;;6268112;28;20076;-74
2023/12/29 06:32:21;;;;;;;14.80;10.83;;;;;;;;;;6252852;28;20327;-73
2023/12/29 06:35:23;;;;;;;21.40;10.38;;;;;;;;;;6251716;28;20502;-75
2023/12/29 06:38:25;;;;;;;15.98;10.80;;;;;;;;;;6234681;28;20057;-74
2023/12/29 06:41:27;;;;;;;13.93;9.35;;;;;;;;;;6252443;28;20053;-73
2023/12/29 06:44:32;;;;;;;16.00;10.27;;;;;;;;;;6252729;28;20056;-73
2023/12/29 06:47:34;;;;;;;14.73;10.18;;;;;;;;;;6251620;28;20060;-74
2023/12/29 06:50:37;;;;;;;15.20;10.60;;;;;;;;;;6251332;28;20045;-74
2023/12/29 06:53:39;;;;;;;15.00;10.05;;;;;;;;;;6252636;28;20056;-75
2023/12/29 06:56:41;;;;;;;14.98;9.55;;;;;;;;;;6252131;28;20045;-74
2023/12/29 06:59:45;;;;;;;15.10;10.25;;;;;;;;;;6251631;28;20053;-74
2023/12/29 07:02:47;;;;;;;14.17;9.90;;;;;;;;;;6253343;28;20054;-74
2023/12/29 07:05:49;;;;;;;13.93;10.43;;;;;;;;;;6252522;28;20077;-75
2023/12/29 07:08:52;;;;;;;15.70;10.00;;;;;;;;;;6251407;28;20116;-75
2023/12/29 07:11:54;;;;;;;16.13;10.13;;;;;;;;;;6251641;28;20056;-75
2023/12/29 07:14:57;;;;;;;16.88;10.10;;;;;;;;;;6252457;28;20064;-75
2023/12/29 07:17:59;;;;;;;18.30;9.93;;;;;;;;;;6251999;28;20065;-74
2023/12/29 07:21:02;;;;;;;14.73;9.67;;;;;;;;;;6251440;28;20049;-75
2023/12/29 07:24:05;;;;;;;15.70;10.70;;;;;;;;;;6248849;28;20080;-74
2023/12/29 07:27:07;;;;;;;16.90;10.25;;;;;;;;;;6250454;28;20058;-75
2023/12/29 07:30:13;;;;;;;17.70;10.18;;;;;;;;;;6251773;28;20049;-74
2023/12/29 07:33:15;;;;;;;17.50;10.00;;;;;;;;;;6252937;28;20415;-74
2023/12/29 07:36:17;;;;;;;14.18;10.50;;;;;;;;;;6252586;28;20053;-74
2023/12/29 07:39:19;;;;;;;14.48;10.00;;;;;;;;;;6252862;28;20057;-73
2023/12/29 07:42:21;;;;;;;15.07;10.50;;;;;;;;;;6282942;28;20061;-74
2023/12/29 07:45:24;;;;;;;18.33;10.80;;;;;;;;;;6253340;28;20076;-74
2023/12/29 07:48:26;;;;;;;17.10;9.77;;;;;;;;;;6249959;28;20061;-73
2023/12/29 07:51:28;;;;;;;13.77;8.60;;;;;;;;;;6251871;28;20132;-74
2023/12/29 07:54:30;;;;;;;15.07;9.32;;;;;;;;;;6251979;28;20037;-75
2023/12/29 07:57:31;;;;;;;17.55;9.85;;;;;;;;;;6250495;28;20053;-75
2023/12/29 08:00:36;;;;;;;17.77;9.80;;;;;;;;;;6251071;28;20052;-74
2023/12/29 08:03:38;;;;;;;16.42;9.55;;;;;;;;;;6250748;28;20045;-82
2023/12/29 08:06:40;;;;;;;13.57;9.55;;;;;;;;;;6252276;28;20478;-81
2023/12/29 08:09:41;;;;;;;16.17;10.48;;;;;;;;;;6252922;28;20350;-80
2023/12/29 08:12:44;;;;;;;13.88;9.73;;;;;;;;;;6249955;28;20053;-83
2023/12/29 08:15:47;;;;;;;15.93;9.75;;;;;;;;;;6252029;28;20136;-80
2023/12/29 08:18:50;;;;;;;15.20;9.37;;;;;;;;;;6252394;28;20068;-82
2023/12/29 08:21:52;;;;;;;14.88;9.38;;;;;;;;;;6256218;28;20419;-79
2023/12/29 08:24:54;;;;;;;16.30;9.45;;;;;;;;;;6251743;28;20041;-79
2023/12/29 08:27:57;;;;;;;19.63;9.40;;;;;;;;;;6252870;28;20057;-80
2023/12/29 08:31:00;;;;;;;14.43;9.05;;;;;;;;;;6253836;28;20053;-77
2023/12/29 08:34:02;;;;;;;14.50;9.05;;;;;;;;;;6250524;28;20348;-78
2023/12/29 08:37:06;;;;;;;13.60;8.90;;;;;;;;;;6254231;28;20057;-76
2023/12/29 08:40:12;;;;;;;11.32;8.27;;;;;;;;;;6257591;28;20359;-77
2023/12/29 08:43:14;;;;;;;12.90;7.93;;;;;;;;;;6256430;28;20061;-77
2023/12/29 08:46:17;;;;;;;12.85;8.70;;;;;;;;;;6288674;28;20252;-77
2023/12/29 08:49:19;;;;;;;11.52;7.85;;;;;;;;;;6256667;28;20049;-78
2023/12/29 08:52:21;;;;;;;13.38;8.60;;;;;;;;;;6256153;28;20053;-77
2023/12/29 08:55:23;;;;;;;14.90;8.15;;;;;;;;;;6254175;28;20298;-77
2023/12/29 08:58:25;;;;;;;14.60;8.50;;;;;;;;;;6253354;28;20143;-77
2023/12/29 09:01:28;;;;;;;13.27;9.00;;;;;;;;;;6254727;28;20580;-77
2023/12/29 09:04:30;;;;;;;17.98;9.85;;;;;;;;;;6252445;28;20053;-79
2023/12/29 09:07:32;;;;;;;15.63;9.40;;;;;;;;;;6285546;28;20607;-78
2023/12/29 09:10:34;;;;;;;12.75;8.38;;;;;;;;;;6252821;28;20350;-79
2023/12/29 09:13:36;;;;;;;14.68;8.18;;;;;;;;;;6253599;28;20256;-78
2023/12/29 09:16:40;;;;;;;12.05;7.53;;;;;;;;;;6254688;28;20103;-77
2023/12/29 09:19:42;;;;;;;12.55;7.80;;;;;;;;;;6255667;28;20076;-78
2023/12/29 09:22:43;;;;;;;14.73;8.15;;;;;;;;;;6255251;28;20335;-78
2023/12/29 09:25:47;;;;;;;11.73;8.10;;;;;;;;;;6253750;28;20052;-78
2023/12/29 09:28:49;;;;;;;14.10;7.70;;;;;;;;;;6252950;28;20313;-77
2023/12/29 09:31:52;;;;;;;10.52;7.60;;;;;;;;;;6254455;28;20295;-78
2023/12/29 09:34:54;;;;;;;10.60;7.10;;;;;;;;;;6253544;28;20063;-78
2023/12/29 09:37:56;;;;;;;10.82;7.60;;;;;;;;;;6255874;28;20308;-78
2023/12/29 09:41:01;;;;;;;13.18;7.50;;;;;;;;;;6255397;28;20091;-78
2023/12/29 09:44:02;;;;;;;12.57;8.25;;;;;;;;;;6255424;28;20061;-78
2023/12/29 09:47:08;;;;;;;13.10;8.52;;;;;;;;;;6253280;28;20081;-78
2023/12/29 09:50:12;;;;;;;13.93;9.25;;;;;;;;;;6245074;28;20084;-78
2023/12/29 09:53:14;;;;;;;12.75;8.73;;;;;;;;;;6255236;28;20057;-78
2023/12/29 09:56:17;;;;;;;14.93;9.10;;;;;;;;;;6252237;28;20058;-76
2023/12/29 09:59:19;;;;;;;14.95;9.45;;;;;;;;;;6256068;28;20370;-78
2023/12/29 10:02:24;;;;;;;17.85;10.15;;;;;;;;;;6253468;28;20524;-77
2023/12/29 10:05:28;;;;;;;17.20;10.32;;;;;;;;;;6253958;28;20060;-78
2023/12/29 10:08:30;;;;;;;;;;;;;;;;;;6254248;28;20049;-79
2023/12/29 10:11:36;;;;;;;15.02;9.60;;;;;;;;;;6253881;28;19924;-77
2023/12/29 10:14:42;;;;;;;16.63;9.75;;;;;;;;;;6253330;28;20049;-79
2023/12/29 10:17:52;;;;;;;20.45;9.85;;;;;;;;;;6252034;28;20197;-78
2023/12/29 10:21:00;;;;;;;17.77;11.50;;;;;;;;;;6249219;28;20325;-79
2023/12/29 10:24:07;;;;;;;19.00;11.95;;;;;;;;;;6248203;28;20057;-80
2023/12/29 10:27:09;;;;;;;15.77;11.65;;;;;;;;;;6253486;28;20065;-83
2023/12/29 10:30:13;;;;;;;15.88;11.50;;;;;;;;;;6249933;28;20044;-82
2023/12/29 10:33:24;;;;;;;15.63;10.18;;;;;;;;;;6250181;28;20046;-79
2023/12/29 10:36:25;;;;;;;19.20;11.32;;;;;;;;;;6253347;28;20120;-81
2023/12/29 10:39:28;;;;;;;17.45;11.38;;;;;;;;;;6254990;28;20053;-82
2023/12/29 10:42:31;;;;;;;16.92;10.27;;;;;;;;;;6250466;28;20383;-81
2023/12/29 10:45:32;;;;;;;14.40;9.80;;;;;;;;;;6252373;28;20217;-82
2023/12/29 10:48:36;;;;;;;15.00;9.80;;;;;;;;;;6252575;28;20061;-82
2023/12/29 10:51:38;;;;;;;18.33;10.82;;;;;;;;;;6252977;28;20042;-82
2023/12/29 10:54:42;;;;;;;15.43;9.75;;;;;;;;;;6252359;28;20056;-82
2023/12/29 10:57:44;;;;;;;16.60;9.55;;;;;;;;;;6237838;28;20057;-83
2023/12/29 11:00:46;;;;;;;14.13;9.82;;;;;;;;;;6253455;28;20053;-81
2023/12/29 11:03:58;;;;;;;16.20;10.15;;;;;;;;;;6252939;28;20381;-81
2023/12/29 11:07:00;;;;;;;15.15;10.07;;;;;;;;;;6228317;28;20124;-80
2023/12/29 11:10:04;;;;;;;16.45;10.90;;;;;;;;;;6253659;28;20061;-82
2023/12/29 11:13:06;;;;;;;15.95;11.25;;;;;;;;;;6251940;28;20084;-80
2023/12/29 11:16:10;;;;;;;16.83;10.50;;;;;;;;;;6228855;28;20061;-81
2023/12/29 11:19:14;;;;;;;15.55;10.10;;;;;;;;;;6228646;28;20072;-82
2023/12/29 11:22:18;;;;;;;16.15;10.68;;;;;;;;;;6226018;28;20057;-81
2023/12/29 11:25:20;;;;;;;17.73;11.18;;;;;;;;;;6224655;28;20414;-83
2023/12/29 11:28:22;;;;;;;15.50;10.80;;;;;;;;;;6227457;28;20054;-81
2023/12/29 11:31:26;;;;;;;14.55;10.15;;;;;;;;;;6226736;28;20050;-81
2023/12/29 11:34:35;;;;;;;16.52;10.48;;;;;;;;;;6227782;28;20112;-75
2023/12/29 11:37:52;;;;;;;14.07;10.18;;;;;;;;;;6222953;28;20060;-74
2023/12/29 11:41:01;;;;;;;18.02;10.75;;;;;;;;;;6224725;28;20052;-74
2023/12/29 11:44:02;;;;;;;14.70;10.00;;;;;;;;;;6223924;28;20049;-74
2023/12/29 11:47:06;;;;;;;16.42;10.27;;;;;;;;;;6227884;28;20057;-75
2023/12/29 11:50:10;;;;;;;18.42;10.63;;;;;;;;;;6224872;28;20064;-74
2023/12/29 11:53:11;;;;;;;;;;;;;;;;;;6225716;28;20338;-74
2023/12/29 11:56:16;;;;;;;16.23;10.20;;;;;;;;;;6229305;28;20055;-74
2023/12/29 11:59:20;;;;;;;16.00;9.95;;;;;;;;;;6230077;28;20058;-73
2023/12/29 12:02:29;;;;;;;15.75;10.30;;;;;;;;;;6230984;28;20058;-73
2023/12/29 12:05:47;;;;;;;19.00;10.68;;;;;;;;;;6230107;28;20061;-74
2023/12/29 12:08:49;;;;;;;17.38;9.80;;;;;;;;;;6232736;28;20057;-74
2023/12/29 12:11:51;;;;;;;12.48;9.23;;;;;;;;;;6230308;28;20083;-73
2023/12/29 12:14:55;;;;;;;14.70;9.40;;;;;;;;;;6231697;28;20056;-75
2023/12/29 12:17:57;;;;;;;16.60;9.32;;;;;;;;;;6247855;28;20064;-74
2023/12/29 12:21:01;;;;;;;14.00;9.20;;;;;;;;;;6237559;28;20050;-74
2023/12/29 12:24:04;;;;;;;13.50;9.18;;;;;;;;;;6230622;28;20049;-74
2023/12/29 12:27:11;;;;;;;14.90;9.85;;;;;;;;;;6232113;28;20057;-74
2023/12/29 12:30:19;;;;;;;17.02;10.27;;;;;;;;;;6229924;28;20053;-74
2023/12/29 12:33:21;;;;;;;13.68;9.60;;;;;;;;;;6229224;28;20054;-74
2023/12/29 12:36:26;;;;;;;15.77;10.57;;;;;;;;;;6230759;28;20372;-74
2023/12/29 12:39:39;;;;;;;14.57;10.48;;;;;;;;;;6229325;28;20052;-74
2023/12/29 12:42:41;;;;;;;18.15;10.45;;;;;;;;;;6229587;28;20058;-76
2023/12/29 12:45:48;;;;;;;13.13;9.20;;;;;;;;;;6230648;28;20053;-75
2023/12/29 12:48:50;;;;;;;13.93;9.43;;;;;;;;;;6228412;28;20069;-75
2023/12/29 12:51:54;;;;;;;13.60;8.95;;;;;;;;;;6229014;28;20136;-75
2023/12/29 12:54:56;;;;;;;15.02;10.15;;;;;;;;;;6230027;28;20050;-73
2023/12/29 12:57:58;;;;;;;20.08;11.98;;;;;;;;;;6258891;28;20057;-73
2023/12/29 13:01:01;;;;;;;17.48;11.73;;;;;;;;;;6286149;28;20426;-73
2023/12/29 13:04:03;;;;;;;20.45;12.75;;;;;;;;;;6255440;28;20058;-74
2023/12/29 13:07:07;;;;;;;19.27;12.48;;;;;;;;;;6250948;28;20053;-73
2023/12/29 13:10:09;;;;;;;21.90;12.47;;;;;;;;;;6254451;28;20057;-73
2023/12/29 13:13:12;;;;;;;21.15;13.32;;;;;;;;;;6255529;28;20467;-73
2023/12/29 13:16:14;;;;;;;19.13;11.95;;;;;;;;;;6254410;28;20053;-73
2023/12/29 13:19:18;;;;;;;21.75;13.55;;;;;;;;;;6254354;28;20084;-73
2023/12/29 13:22:22;;;;;;;25.73;14.02;;;;;;;;;;6251809;28;20053;-74
2023/12/29 13:25:28;;;;;;;21.67;14.55;;;;;;;;;;6254456;28;20055;-73
2023/12/29 13:28:31;;;;;;;22.25;14.32;;;;;;;;;;6255260;28;20407;-74
2023/12/29 13:31:34;;;;;;;23.30;13.60;;;;;;;;;;6254474;28;20060;-73
2023/12/29 13:34:40;;;;;;;19.88;13.23;;;;;;;;;;6254084;28;20057;-72
2023/12/29 13:37:47;;;;;;;18.80;13.00;;;;;;;;;;6269669;28;20056;-73
2023/12/29 13:40:59;;;;;;;22.65;13.60;;;;;;;;;;6255867;28;20045;-73
2023/12/29 13:44:01;;;;;;;21.95;13.60;;;;;;;;;;6253817;28;20351;-73
2023/12/29 13:47:03;;;;;;;17.85;13.10;;;;;;;;;;6253737;28;20057;-74
2023/12/29 13:50:07;;;;;;;22.88;13.95;;;;;;;;;;6251450;28;20057;-73
2023/12/29 13:53:17;;;;;;;19.95;13.48;;;;;;;;;;6252692;28;20227;-73
2023/12/29 13:56:19;;;;;;;21.73;14.38;;;;;;;;;;6251347;28;20057;-74
2023/12/29 13:59:30;;;;;;;20.80;13.20;;;;;;;;;;6252695;28;20343;-73
2023/12/29 14:02:33;;;;;;;22.00;14.77;;;;;;;;;;6251936;28;20107;-74
2023/12/29 14:05:37;;;;;;;20.38;13.95;;;;;;;;;;6253881;28;20045;-74
2023/12/29 14:08:45;;;;;;;21.98;14.43;;;;;;;;;;6252671;28;20343;-74
2023/12/29 14:11:48;;;;;;;23.73;14.45;;;;;;;;;;6254296;28;20057;-75
2023/12/29 14:14:50;;;;;;;23.25;14.82;;;;;;;;;;6253007;28;20056;-74
2023/12/29 14:17:58;;;;;;;21.83;14.73;;;;;;;;;;6254422;28;20065;-74
2023/12/29 14:20:59;;;;;;;21.17;15.40;;;;;;;;;;6254966;28;20068;-74
2023/12/29 14:24:17;;;;;;;26.63;15.90;;;;;;;;;;6252787;28;20057;-73
2023/12/29 14:27:19;;;;;;;25.10;15.38;;;;;;;;;;6253568;28;20370;-74
2023/12/29 14:30:20;;;;;;;23.67;15.23;;;;;;;;;;6251281;28;20045;-73
2023/12/29 14:33:22;;;;;;;21.50;14.45;;;;;;;;;;6253084;28;20053;-74
2023/12/29 14:36:24;;;;;;;24.38;15.05;;;;;;;;;;6268020;28;20124;-74
2023/12/29 14:39:31;;;;;;;22.70;14.82;;;;;;;;;;6284863;28;20084;-73
2023/12/29 14:42:40;;;;;;;19.52;14.20;;;;;;;;;;6252302;28;20060;-75
2023/12/29 14:45:42;;;;;;;21.42;14.43;;;;;;;;;;6251452;28;20131;-75
2023/12/29 14:48:44;;;;;;;19.08;13.27;;;;;;;;;;6283158;28;20057;-74
2023/12/29 14:51:48;;;;;;;19.38;13.88;;;;;;;;;;6253204;28;20053;-74
2023/12/29 14:54:58;;;;;;;22.13;13.63;;;;;;;;;;6253199;28;20371;-74
2023/12/29 14:58:00;;;;;;;20.02;13.52;;;;;;;;;;6228033;28;20053;-73
2023/12/29 15:01:06;;;;;;;22.25;13.45;;;;;;;;;;6251783;28;20068;-74
2023/12/29 15:04:11;;;;;;;21.70;12.82;;;;;;;;;;6251154;28;20137;-79
2023/12/29 15:07:13;;;;;;;20.95;13.05;;;;;;;;;;6251142;28;20107;-80
2023/12/29 15:10:16;;;;;;;22.13;13.50;;;;;;;;;;6251051;28;20054;-80
2023/12/29 15:13:18;;;;;;;21.43;14.23;;;;;;;;;;6251433;28;20056;-80
2023/12/29 15:16:19;;;;;;;23.73;14.13;;;;;;;;;;6249460;28;20464;-80
2023/12/29 15:19:22;;;;;;;21.75;14.52;;;;;;;;;;6250161;28;20351;-79
2023/12/29 15:22:26;;;;;;;23.13;15.13;;;;;;;;;;6244250;28;20057;-79
2023/12/29 15:25:29;;;;;;;22.35;13.77;;;;;;;;;;6252495;28;20104;-80
2023/12/29 15:28:31;;;;;;;24.43;13.67;;;;;;;;;;6252957;28;20052;-79
2023/12/29 15:31:33;;;;;;;25.10;14.48;;;;;;;;;;6252190;28;20077;-81
2023/12/29 15:34:34;;;;;;;21.92;14.40;;;;;;;;;;6252014;28;20045;-82
2023/12/29 15:37:36;;;;;;;21.10;14.02;;;;;;;;;;6249508;28;20049;-80
2023/12/29 15:40:39;;;;;;;22.67;14.98;;;;;;;;;;6250486;28;20057;-79
2023/12/29 15:43:41;;;;;;;26.43;13.53;;;;;;;;;;6252716;28;20232;-81
2023/12/29 15:46:43;;;;;;;25.67;14.98;;;;;;;;;;6253020;28;20053;-81
2023/12/29 15:49:45;;;;;;;22.63;14.60;;;;;;;;;;6251052;28;20053;-80
2023/12/29 15:52:48;;;;;;;42.88;24.42;;;;;;;;;;6250442;28;20045;-82
2023/12/29 15:55:52;;;;;;;44.42;25.92;;;;;;;;;;6250645;28;20152;-80
2023/12/29 15:58:54;;;;;;;26.75;16.58;;;;;;;;;;6251711;28;20060;-80
2023/12/29 16:01:55;;;;;;;24.25;14.93;;;;;;;;;;6252899;28;20061;-80
2023/12/29 16:04:57;;;;;;;23.63;15.15;;;;;;;;;;6252337;28;20053;-80
2023/12/29 16:07:59;;;;;;;23.75;14.20;;;;;;;;;;6252681;28;20409;-79
2023/12/29 16:11:03;;;;;;;21.20;13.73;;;;;;;;;;6254335;28;20064;-80
2023/12/29 16:14:05;;;;;;;22.45;13.90;;;;;;;;;;6242941;28;20053;-74
2023/12/29 16:17:06;;;;;;;22.70;12.63;;;;;;;;;;6250241;28;20061;-74
2023/12/29 16:20:10;;;;;;;23.67;12.93;;;;;;;;;;6251346;28;20060;-74
2023/12/29 16:23:12;;;;;;;16.73;11.63;;;;;;;;;;6251306;28;20057;-74
2023/12/29 16:26:15;;;;;;;17.38;12.70;;;;;;;;;;6244054;28;20049;-74
2023/12/29 16:29:17;;;;;;;18.75;11.85;;;;;;;;;;6248556;28;20287;-74
2023/12/29 16:32:24;;;;;;;17.00;11.52;;;;;;;;;;6252128;28;20057;-74
2023/12/29 16:35:26;;;;;;;17.77;11.35;;;;;;;;;;6250773;28;20280;-75
2023/12/29 16:38:27;;;;;;;17.42;11.93;;;;;;;;;;6250131;28;20481;-73
2023/12/29 16:41:32;;;;;;;19.48;11.90;;;;;;;;;;6251552;28;20083;-74
2023/12/29 16:44:34;;;;;;;20.55;13.23;;;;;;;;;;6288621;28;20306;-73
2023/12/29 16:47:37;;;;;;;22.25;12.95;;;;;;;;;;6270056;28;20355;-74
2023/12/29 16:50:39;;;;;;;24.63;14.23;;;;;;;;;;6254702;28;20064;-74
2023/12/29 16:53:41;;;;;;;22.23;14.10;;;;;;;;;;6255386;28;20451;-74
2023/12/29 16:56:44;;;;;;;22.40;15.10;;;;;;;;;;6253361;28;20220;-74
2023/12/29 16:59:46;;;;;;;25.03;16.03;;;;;;;;;;6254630;28;20348;-74
2023/12/29 17:02:47;;;;;;;28.02;17.33;;;;;;;;;;6253962;28;20053;-75
2023/12/29 17:05:52;;;;;;;28.45;16.95;;;;;;;;;;6254297;28;20042;-78
2023/12/29 17:08:54;;;;;;;32.95;19.00;;;;;;;;;;6254860;28;20053;-75
2023/12/29 17:11:57;;;;;;;32.60;18.58;;;;;;;;;;6236235;28;20072;-75
2023/12/29 17:15:00;;;;;;;26.83;18.05;;;;;;;;;;6254671;28;20099;-75
2023/12/29 17:18:02;;;;;;;33.42;19.52;;;;;;;;;;6255009;28;20129;-74
2023/12/29 17:21:06;;;;;;;28.42;17.40;;;;;;;;;;6252664;28;20250;-75
2023/12/29 17:24:08;;;;;;;29.30;18.65;;;;;;;;;;6255491;28;20135;-74
2023/12/29 17:27:15;;;;;;;27.80;16.77;;;;;;;;;;6250920;28;20319;-73
2023/12/29 17:30:18;;;;;;;25.83;16.02;;;;;;;;;;6256154;28;20373;-74
2023/12/29 17:33:19;;;;;;;24.17;15.82;;;;;;;;;;6236289;28;20124;-75
2023/12/29 17:36:21;;;;;;;25.40;16.02;;;;;;;;;;6231088;28;20131;-74
2023/12/29 17:39:23;;;;;;;24.17;15.65;;;;;;;;;;6227807;28;20271;-75
2023/12/29 17:42:26;;;;;;;27.25;16.08;;;;;;;;;;6230498;28;20046;-74
2023/12/29 17:45:28;;;;;;;22.65;15.07;;;;;;;;;;6229922;28;20632;-75
2023/12/29 17:48:30;;;;;;;30.10;16.60;;;;;;;;;;6212501;28;20088;-75
2023/12/29 17:51:33;;;;;;;25.85;16.30;;;;;;;;;;6229865;28;20049;-75